createdAt,value
2023-03-03T00:01:10.315Z,100723.50
2023-03-03T00:03:39.129Z,100719.91
2023-03-03T00:06:12.432Z,100718.22
2023-03-03T00:08:43.305Z,100719.00
2023-03-03T00:11:12.515Z,100725.72
2023-03-03T00:13:48.338Z,100728.38
2023-03-03T00:16:23.962Z,100727.47
2023-03-03T00:18:53.766Z,100724.13
2023-03-03T00:21:33.734Z,100729.28
2023-03-03T00:24:21.821Z,100726.69
2023-03-03T00:26:52.191Z,100723.16
2023-03-03T00:29:36.770Z,100727.25
2023-03-03T00:32:26.125Z,100729.47
2023-03-03T00:34:57.395Z,100728.31
2023-03-03T00:37:34.516Z,100732.47
2023-03-03T00:40:22.547Z,100733.34
2023-03-03T00:42:54.249Z,100727.41
2023-03-03T00:45:36.328Z,100739.47
2023-03-03T00:48:23.087Z,100734.34
2023-03-03T00:50:53.118Z,100736.03
2023-03-03T00:53:23.916Z,100743.06
2023-03-03T00:55:54.769Z,100738.06
2023-03-03T00:58:25.113Z,100746.66
2023-03-03T01:00:56.697Z,100738.16
2023-03-03T01:03:30.750Z,100740.84
2023-03-03T01:05:59.672Z,100737.25
2023-03-03T01:08:28.561Z,100730.78
2023-03-03T01:11:04.181Z,100735.78
2023-03-03T01:13:37.898Z,100748.38
2023-03-03T01:16:07.979Z,100747.50
2023-03-03T01:18:37.756Z,100748.28
2023-03-03T01:21:06.727Z,100747.38
2023-03-03T01:23:35.183Z,100745.72
2023-03-03T01:26:06.325Z,100743.91
2023-03-03T01:28:34.849Z,100737.88
2023-03-03T01:31:04.127Z,100733.53
2023-03-03T01:33:32.864Z,100741.75
2023-03-03T01:36:01.464Z,100742.53
2023-03-03T01:38:30.068Z,100742.31
2023-03-03T01:41:00.936Z,100745.38
2023-03-03T01:43:33.429Z,100738.88
2023-03-03T01:46:35.480Z,100741.22
2023-03-03T01:49:08.229Z,100738.50
2023-03-03T01:51:40.270Z,100744.41
2023-03-03T01:54:17.553Z,100741.75
2023-03-03T01:56:46.168Z,100737.41
2023-03-03T01:59:20.047Z,100740.31
2023-03-03T02:01:50.629Z,100738.78
2023-03-03T02:04:21.912Z,100740.44
2023-03-03T02:06:55.676Z,100738.78
2023-03-03T02:09:34.286Z,100742.75
2023-03-03T02:12:08.685Z,100741.09
2023-03-03T02:14:38.614Z,100734.97
2023-03-03T02:17:07.893Z,100727.34
2023-03-03T02:19:47.528Z,100725.06
2023-03-03T02:22:19.043Z,100713.13
2023-03-03T02:24:53.085Z,100711.69
2023-03-03T02:27:23.856Z,100714.38
2023-03-03T02:29:53.351Z,100722.97
2023-03-03T02:32:22.354Z,100719.50
2023-03-03T02:34:52.987Z,100722.84
2023-03-03T02:37:22.038Z,100727.06
2023-03-03T02:39:50.376Z,100736.69
2023-03-03T02:42:24.976Z,100741.81
2023-03-03T02:44:56.660Z,100750.94
2023-03-03T02:47:25.335Z,100750.44
2023-03-03T02:49:54.055Z,100743.94
2023-03-03T02:52:22.732Z,100737.31
2023-03-03T02:54:51.518Z,100736.06
2023-03-03T02:57:19.896Z,100736.59
2023-03-03T02:59:51.368Z,100739.94
2023-03-03T03:02:20.353Z,100733.13
2023-03-03T03:04:49.264Z,100730.66
2023-03-03T03:07:22.756Z,100736.59
2023-03-03T03:09:51.627Z,100733.00
2023-03-03T03:12:21.236Z,100731.75
2023-03-03T03:14:54.784Z,100738.41
2023-03-03T03:17:23.123Z,100737.50
2023-03-03T03:19:53.978Z,100740.22
2023-03-03T03:22:22.861Z,100744.56
2023-03-03T03:24:51.641Z,100743.41
2023-03-03T03:27:20.361Z,100748.44
2023-03-03T03:29:50.077Z,100738.19
2023-03-03T03:32:20.914Z,100743.53
2023-03-03T03:34:49.630Z,100746.59
2023-03-03T03:37:18.243Z,100752.50
2023-03-03T03:39:48.252Z,100752.13
2023-03-03T03:42:16.643Z,100750.72
2023-03-03T03:44:45.174Z,100752.81
2023-03-03T03:47:13.614Z,100759.50
2023-03-03T03:49:43.384Z,100760.41
2023-03-03T03:52:11.855Z,100764.84
2023-03-03T03:54:40.289Z,100768.44
2023-03-03T03:57:08.759Z,100769.34
2023-03-03T03:59:37.543Z,100767.41
2023-03-03T04:02:06.366Z,100784.22
2023-03-03T04:04:34.972Z,100779.50
2023-03-03T04:07:04.939Z,100778.72
2023-03-03T04:09:33.542Z,100769.50
2023-03-03T04:12:02.820Z,100779.47
2023-03-03T04:14:32.208Z,100778.22
2023-03-03T04:17:01.370Z,100781.81
2023-03-03T04:19:29.736Z,100774.63
2023-03-03T04:21:58.086Z,100775.66
2023-03-03T04:24:28.141Z,100782.06
2023-03-03T04:26:57.249Z,100780.28
2023-03-03T04:29:25.587Z,100792.84
2023-03-03T04:31:54.368Z,100782.44
2023-03-03T04:34:23.492Z,100785.66
2023-03-03T04:36:52.531Z,100775.41
2023-03-03T04:39:21.003Z,100783.34
2023-03-03T04:41:50.957Z,100781.81
2023-03-03T04:44:20.246Z,100784.41
2023-03-03T04:46:50.354Z,100775.13
2023-03-03T04:49:19.132Z,100781.31
2023-03-03T04:51:47.491Z,100773.84
2023-03-03T04:54:16.096Z,100780.38
2023-03-03T04:56:45.481Z,100772.31
2023-03-03T04:59:16.157Z,100776.16
2023-03-03T05:01:46.481Z,100776.44
2023-03-03T05:04:16.001Z,100779.22
2023-03-03T05:06:44.621Z,100776.94
2023-03-03T05:09:13.054Z,100777.94
2023-03-03T05:11:41.447Z,100771.28
2023-03-03T05:14:09.788Z,100768.94
2023-03-03T05:16:39.891Z,100771.78
2023-03-03T05:19:08.659Z,100777.13
2023-03-03T05:21:37.948Z,100765.22
2023-03-03T05:24:06.611Z,100775.38
2023-03-03T05:26:35.033Z,100763.19
2023-03-03T05:29:03.567Z,100770.75
2023-03-03T05:31:32.143Z,100768.72
2023-03-03T05:34:01.979Z,100763.31
2023-03-03T05:36:30.444Z,100777.44
2023-03-03T05:38:58.779Z,100777.97
2023-03-03T05:41:27.370Z,100782.06
2023-03-03T05:43:55.829Z,100780.00
2023-03-03T05:46:24.667Z,100785.78
2023-03-03T05:48:53.230Z,100784.06
2023-03-03T05:51:23.075Z,100786.78
2023-03-03T05:53:51.514Z,100784.22
2023-03-03T05:56:19.939Z,100792.06
2023-03-03T05:58:48.372Z,100787.69
2023-03-03T06:01:16.752Z,100788.22
2023-03-03T06:03:45.096Z,100786.41
2023-03-03T06:06:16.250Z,100787.94
2023-03-03T06:08:46.356Z,100796.16
2023-03-03T06:11:16.696Z,100797.69
2023-03-03T06:13:45.223Z,100811.28
2023-03-03T06:16:13.547Z,100797.56
2023-03-03T06:18:41.909Z,100817.16
2023-03-03T06:21:10.423Z,100828.41
2023-03-03T06:23:38.903Z,100825.84
2023-03-03T06:26:08.963Z,100819.72
2023-03-03T06:28:37.388Z,100824.09
2023-03-03T06:31:06.411Z,100823.69
2023-03-03T06:33:35.043Z,100818.47
2023-03-03T06:36:05.721Z,100830.09
2023-03-03T06:38:34.319Z,100826.78
2023-03-03T06:41:07.223Z,100829.34
2023-03-03T06:43:38.000Z,100837.91
2023-03-03T06:46:08.081Z,100836.88
2023-03-03T06:48:36.896Z,100838.44
2023-03-03T06:51:21.365Z,100843.56
2023-03-03T06:53:51.529Z,100847.13
2023-03-03T06:56:19.985Z,100845.75
2023-03-03T06:58:50.680Z,100841.00
2023-03-03T07:01:19.407Z,100842.94
2023-03-03T07:03:47.953Z,100846.63
2023-03-03T07:06:24.692Z,100851.22
2023-03-03T07:08:54.103Z,100853.28
2023-03-03T07:11:25.320Z,100848.44
2023-03-03T07:13:57.276Z,100853.81
2023-03-03T07:16:28.659Z,100857.19
2023-03-03T07:18:58.997Z,100855.84
2023-03-03T07:21:33.098Z,100853.28
2023-03-03T07:24:15.097Z,100857.41
2023-03-03T07:26:43.581Z,100861.63
2023-03-03T07:29:23.971Z,100869.56
2023-03-03T07:31:54.229Z,100873.16
2023-03-03T07:34:25.393Z,100879.03
2023-03-03T07:36:57.285Z,100886.09
2023-03-03T07:39:39.057Z,100887.09
2023-03-03T07:42:22.199Z,100883.66
2023-03-03T07:45:00.947Z,100890.19
2023-03-03T07:47:32.327Z,100893.38
2023-03-03T07:50:13.558Z,100899.91
2023-03-03T07:52:44.600Z,100903.00
2023-03-03T07:55:32.006Z,100901.19
2023-03-03T07:58:23.078Z,100912.34
2023-03-03T08:01:39.779Z,100906.56
2023-03-03T08:04:19.369Z,100910.16
2023-03-03T08:06:56.760Z,100915.44
2023-03-03T08:09:46.020Z,100912.22
2023-03-03T08:12:36.516Z,100916.56
2023-03-03T08:15:27.559Z,100913.50
2023-03-03T08:17:57.985Z,100919.41
2023-03-03T08:20:47.197Z,100923.75
2023-03-03T08:23:17.785Z,100923.63
2023-03-03T08:25:47.210Z,100925.03
2023-03-03T08:28:16.325Z,100920.41
2023-03-03T08:30:46.384Z,100925.31
2023-03-03T08:33:17.072Z,100931.19
2023-03-03T08:35:46.152Z,100926.53
2023-03-03T08:38:17.646Z,100931.94
2023-03-03T08:40:47.233Z,100934.75
2023-03-03T08:43:21.437Z,100936.69
2023-03-03T08:45:52.347Z,100939.63
2023-03-03T08:48:22.375Z,100941.16
2023-03-03T08:50:51.321Z,100940.00
2023-03-03T08:53:21.360Z,100939.13
2023-03-03T08:55:50.054Z,100947.56
2023-03-03T08:58:30.486Z,100963.72
2023-03-03T09:01:02.082Z,100947.56
2023-03-03T09:03:32.121Z,100945.50
2023-03-03T09:06:00.555Z,100950.13
2023-03-03T09:08:29.020Z,100957.03
2023-03-03T09:10:57.501Z,100962.16
2023-03-03T09:13:25.924Z,100958.31
2023-03-03T09:15:54.409Z,100955.47
2023-03-03T09:18:29.721Z,100955.72
2023-03-03T09:20:59.935Z,100957.88
2023-03-03T09:23:36.210Z,100960.31
2023-03-03T09:26:45.398Z,100966.81
2023-03-03T09:29:25.593Z,100957.69
2023-03-03T09:31:56.616Z,100964.09
2023-03-03T09:34:40.168Z,100971.31
2023-03-03T09:37:23.400Z,100959.25
2023-03-03T09:39:54.205Z,100969.22
2023-03-03T09:42:50.960Z,100965.63
2023-03-03T09:45:53.358Z,100977.53
2023-03-03T09:48:57.069Z,100974.84
2023-03-03T09:51:53.923Z,100981.47
2023-03-03T09:54:57.414Z,100975.75
2023-03-03T09:57:35.981Z,100982.00
2023-03-03T10:00:34.202Z,100986.38
2023-03-03T10:03:36.600Z,101000.84
2023-03-03T10:06:13.016Z,100993.91
2023-03-03T10:08:55.745Z,100991.25
2023-03-03T10:11:34.429Z,101003.41
2023-03-03T10:14:23.005Z,101000.47
2023-03-03T10:17:15.899Z,101001.16
2023-03-03T10:20:00.152Z,100998.22
2023-03-03T10:22:42.667Z,101001.31
2023-03-03T10:25:29.679Z,100992.38
2023-03-03T10:28:27.771Z,100998.03
2023-03-03T10:31:13.602Z,101002.63
2023-03-03T10:33:51.070Z,100997.66
2023-03-03T10:36:50.449Z,101001.88
2023-03-03T10:40:10.881Z,101007.63
2023-03-03T10:43:31.879Z,101011.09
2023-03-03T10:46:27.020Z,101010.06
2023-03-03T10:49:28.770Z,101007.63
2023-03-03T10:52:19.709Z,101005.97
2023-03-03T10:55:10.020Z,101009.31
2023-03-03T10:57:48.032Z,101003.75
2023-03-03T11:00:24.637Z,101010.56
2023-03-03T11:03:37.245Z,101006.47
2023-03-03T11:06:11.884Z,101002.25
2023-03-03T11:08:45.969Z,100997.66
2023-03-03T11:11:22.458Z,101003.69
2023-03-03T11:13:58.103Z,101001.50
2023-03-03T11:16:40.710Z,101001.78
2023-03-03T11:19:26.725Z,101000.38
2023-03-03T11:22:07.668Z,101004.09
2023-03-03T11:24:52.456Z,101004.97
2023-03-03T11:27:39.656Z,101002.69
2023-03-03T11:30:36.488Z,100996.03
2023-03-03T11:33:11.244Z,100996.53
2023-03-03T11:35:47.085Z,101002.19
2023-03-03T11:38:50.004Z,100992.53
2023-03-03T11:41:33.465Z,100993.44
2023-03-03T11:44:17.215Z,100996.00
2023-03-03T11:46:50.672Z,100994.22
2023-03-03T11:49:28.387Z,100989.09
2023-03-03T11:52:12.264Z,100989.72
2023-03-03T11:54:48.251Z,100982.16
2023-03-03T11:57:23.763Z,100978.47
2023-03-03T12:00:09.385Z,100976.72
2023-03-03T12:03:12.498Z,100979.16
2023-03-03T12:05:55.707Z,100975.47
2023-03-03T12:09:10.213Z,100968.03
2023-03-03T12:11:49.117Z,100974.94
2023-03-03T12:14:31.791Z,100965.47
2023-03-03T12:17:04.848Z,100965.47
2023-03-03T12:19:50.753Z,100963.69
2023-03-03T12:22:33.981Z,100959.44
2023-03-03T12:25:28.560Z,100961.22
2023-03-03T12:28:06.639Z,100949.28
2023-03-03T12:31:07.104Z,100957.78
2023-03-03T12:33:52.998Z,100947.41
2023-03-03T12:36:47.842Z,100954.31
2023-03-03T12:39:35.145Z,100955.09
2023-03-03T12:42:13.069Z,100950.97
2023-03-03T12:44:49.429Z,100943.69
2023-03-03T12:47:28.634Z,100948.16
2023-03-03T12:50:20.453Z,100951.75
2023-03-03T12:53:00.348Z,100949.56
2023-03-03T12:55:45.961Z,100954.06
2023-03-03T12:58:29.582Z,100957.63
2023-03-03T13:01:12.528Z,100951.59
2023-03-03T13:03:55.689Z,100954.16
2023-03-03T13:06:31.185Z,100950.47
2023-03-03T13:09:21.249Z,100946.22
2023-03-03T13:12:25.656Z,100950.22
2023-03-03T13:15:03.888Z,100951.22
2023-03-03T13:17:40.038Z,100942.63
2023-03-03T13:20:25.150Z,100947.66
2023-03-03T13:23:03.032Z,100954.31
2023-03-03T13:25:48.953Z,100950.59
2023-03-03T13:28:32.220Z,100957.13
2023-03-03T13:31:08.099Z,100944.56
2023-03-03T13:33:37.862Z,100957.91
2023-03-03T13:36:12.120Z,100939.94
2023-03-03T13:38:44.431Z,100940.06
2023-03-03T13:41:22.453Z,100951.44
2023-03-03T13:43:59.036Z,100946.44
2023-03-03T13:46:42.765Z,100929.38
2023-03-03T13:49:38.436Z,100931.81
2023-03-03T13:52:10.197Z,100934.25
2023-03-03T13:55:06.330Z,100926.19
2023-03-03T13:57:46.886Z,100931.72
2023-03-03T14:00:41.806Z,100926.84
2023-03-03T14:03:43.673Z,100928.00
2023-03-03T14:06:17.333Z,100916.56
2023-03-03T14:09:15.313Z,100919.09
2023-03-03T14:11:49.691Z,100919.38
2023-03-03T14:14:41.675Z,100914.34
2023-03-03T14:17:26.891Z,100919.59
2023-03-03T14:20:14.164Z,100912.94
2023-03-03T14:22:52.945Z,100915.50
2023-03-03T14:25:21.970Z,100895.19
2023-03-03T14:28:10.368Z,100903.25
2023-03-03T14:30:40.740Z,100902.38
2023-03-03T14:33:29.541Z,100895.69
2023-03-03T14:36:12.725Z,100899.28
2023-03-03T14:38:46.644Z,100898.00
2023-03-03T14:41:22.183Z,100892.97
2023-03-03T14:44:02.344Z,100891.53
2023-03-03T14:46:41.871Z,100889.09
2023-03-03T14:49:31.766Z,100888.44
2023-03-03T14:52:05.156Z,100883.56
2023-03-03T14:54:41.351Z,100883.56
2023-03-03T14:57:17.491Z,100881.00
2023-03-03T15:00:00.223Z,100881.75
2023-03-03T15:02:39.764Z,100877.66
2023-03-03T15:05:26.209Z,100876.22
2023-03-03T15:07:56.899Z,100864.41
2023-03-03T15:10:35.846Z,100875.03
2023-03-03T15:13:32.848Z,100877.59
2023-03-03T15:16:18.730Z,100875.94
2023-03-03T15:19:39.093Z,100870.53
2023-03-03T15:22:20.388Z,100873.78
2023-03-03T15:25:00.027Z,100869.13
2023-03-03T15:27:34.760Z,100867.69
2023-03-03T15:30:14.741Z,100870.59
2023-03-03T15:32:49.175Z,100863.16
2023-03-03T15:35:44.823Z,100862.13
2023-03-03T15:38:29.335Z,100854.44
2023-03-03T15:41:12.200Z,100857.13
2023-03-03T15:43:49.857Z,100854.56
2023-03-03T15:46:31.432Z,100856.44
2023-03-03T15:49:16.981Z,100846.94
2023-03-03T15:52:03.947Z,100846.19
2023-03-03T15:54:52.383Z,100851.22
2023-03-03T15:57:32.534Z,100847.06
2023-03-03T16:00:36.767Z,100847.34
2023-03-03T16:03:14.381Z,100834.84
2023-03-03T16:05:55.711Z,100841.88
2023-03-03T16:08:31.404Z,100840.19
2023-03-03T16:11:10.132Z,100837.75
2023-03-03T16:13:59.231Z,100843.78
2023-03-03T16:16:43.802Z,100844.44
2023-03-03T16:19:32.599Z,100845.00
2023-03-03T16:22:28.551Z,100836.38
2023-03-03T16:25:18.843Z,100842.53
2023-03-03T16:27:57.163Z,100844.22
2023-03-03T16:30:29.703Z,100844.22
2023-03-03T16:33:15.119Z,100840.63
2023-03-03T16:35:52.303Z,100845.88
2023-03-03T16:38:27.547Z,100835.59
2023-03-03T16:40:58.929Z,100842.53
2023-03-03T16:43:38.839Z,100834.06
2023-03-03T16:46:32.898Z,100839.22
2023-03-03T16:49:09.962Z,100841.78
2023-03-03T16:51:49.861Z,100845.34
2023-03-03T16:54:28.922Z,100842.75
2023-03-03T16:57:10.924Z,100848.81
2023-03-03T16:59:56.072Z,100845.59
2023-03-03T17:02:53.591Z,100846.22
2023-03-03T17:05:39.914Z,100846.09
2023-03-03T17:09:11.760Z,100852.28
2023-03-03T17:11:57.974Z,100865.13
2023-03-03T17:14:45.538Z,100847.13
2023-03-03T17:17:23.824Z,100863.31
2023-03-03T17:20:07.230Z,100855.53
2023-03-03T17:22:49.138Z,100857.97
2023-03-03T17:25:24.455Z,100862.97
2023-03-03T17:28:13.368Z,100862.84
2023-03-03T17:30:50.174Z,100873.91
2023-03-03T17:33:38.038Z,100866.97
2023-03-03T17:36:22.755Z,100873.66
2023-03-03T17:39:08.932Z,100870.06
2023-03-03T17:41:47.159Z,100875.09
2023-03-03T17:44:23.682Z,100878.31
2023-03-03T17:46:55.412Z,100873.03
2023-03-03T17:49:52.253Z,100878.84
2023-03-03T17:52:53.329Z,100882.06
2023-03-03T17:55:45.366Z,100887.09
2023-03-03T17:58:36.213Z,100885.31
2023-03-03T18:01:17.925Z,100891.22
2023-03-03T18:04:43.449Z,100889.97
2023-03-03T18:07:31.175Z,100888.94
2023-03-03T18:10:46.864Z,100892.16
2023-03-03T18:14:09.628Z,100892.81
2023-03-03T18:16:57.746Z,100895.13
2023-03-03T18:20:02.319Z,100883.97
2023-03-03T18:22:35.305Z,100888.22
2023-03-03T18:25:11.986Z,100888.22
2023-03-03T18:27:41.508Z,100895.91
2023-03-03T18:30:26.540Z,100895.78
2023-03-03T18:33:10.216Z,100901.53
2023-03-03T18:35:41.496Z,100897.31
2023-03-03T18:38:42.164Z,100900.69
2023-03-03T18:41:12.984Z,100907.47
2023-03-03T18:43:55.380Z,100908.25
2023-03-03T18:46:48.818Z,100909.78
2023-03-03T18:49:19.010Z,100901.09
2023-03-03T18:52:23.970Z,100903.41
2023-03-03T18:55:25.134Z,100905.97
2023-03-03T18:58:37.843Z,100917.75
2023-03-03T19:01:42.841Z,100909.84
2023-03-03T19:04:28.783Z,100912.41
2023-03-03T19:07:26.572Z,100922.66
2023-03-03T19:10:01.400Z,100918.44
2023-03-03T19:12:54.587Z,100921.91
2023-03-03T19:15:59.131Z,100934.72
2023-03-03T19:18:28.864Z,100932.94
2023-03-03T19:21:01.893Z,100928.03
2023-03-03T19:23:50.935Z,100927.25
2023-03-03T19:26:58.715Z,100926.50
2023-03-03T19:29:58.423Z,100932.38
2023-03-03T19:32:43.777Z,100929.81
2023-03-03T19:35:27.058Z,100928.28
2023-03-03T19:38:10.778Z,100926.75
2023-03-03T19:40:47.617Z,100907.88
2023-03-03T19:43:34.010Z,100927.63
2023-03-03T19:46:22.243Z,100931.09
2023-03-03T19:49:02.571Z,100916.50
2023-03-03T19:51:36.917Z,100917.50
2023-03-03T19:54:27.687Z,100922.75
2023-03-03T19:56:58.460Z,100921.97
2023-03-03T19:59:36.640Z,100920.31
2023-03-03T20:02:31.421Z,100925.44
2023-03-03T20:05:10.544Z,100925.44
2023-03-03T20:07:46.419Z,100922.97
2023-03-03T20:10:41.352Z,100922.97
2023-03-03T20:13:38.800Z,100912.63
2023-03-03T20:16:23.848Z,100916.94
2023-03-03T20:19:19.820Z,100922.88
2023-03-03T20:22:02.822Z,100916.09
2023-03-03T20:24:49.702Z,100911.81
2023-03-03T20:27:24.144Z,100917.84
2023-03-03T20:30:08.557Z,100912.72
2023-03-03T20:33:07.044Z,100910.16
2023-03-03T20:35:50.553Z,100921.22
2023-03-03T20:38:29.896Z,100916.09
2023-03-03T20:41:07.917Z,100924.66
2023-03-03T20:43:56.741Z,100920.41
2023-03-03T20:46:35.695Z,100914.38
2023-03-03T20:49:24.698Z,100921.22
2023-03-03T20:51:58.980Z,100922.09
2023-03-03T20:54:42.848Z,100917.75
2023-03-03T20:57:20.000Z,100916.09
2023-03-03T20:59:57.771Z,100917.75
2023-03-03T21:02:34.192Z,100916.09
2023-03-03T21:05:15.891Z,100929.00
2023-03-03T21:07:56.994Z,100916.94
2023-03-03T21:10:28.338Z,100914.38
2023-03-03T21:12:59.391Z,100921.31
2023-03-03T21:15:33.813Z,100917.97
2023-03-03T21:18:21.677Z,100920.56
2023-03-03T21:20:50.139Z,100923.88
2023-03-03T21:23:20.953Z,100921.44
2023-03-03T21:25:53.161Z,100916.31
2023-03-03T21:28:25.722Z,100922.34
2023-03-03T21:31:07.473Z,100923.25
2023-03-03T21:33:58.250Z,100921.44
2023-03-03T21:36:47.116Z,100922.34
2023-03-03T21:39:30.210Z,100930.81
2023-03-03T21:42:03.071Z,100921.31
2023-03-03T21:44:36.321Z,100915.41
2023-03-03T21:47:08.391Z,100917.22
2023-03-03T21:49:37.664Z,100913.63
2023-03-03T21:52:06.663Z,100918.75
2023-03-03T21:54:35.022Z,100915.41
2023-03-03T21:57:03.501Z,100919.66
2023-03-03T21:59:31.953Z,100912.84
2023-03-03T22:02:00.432Z,100918.88
2023-03-03T22:04:30.755Z,100911.31
2023-03-03T22:06:59.317Z,100913.88
2023-03-03T22:09:29.098Z,100923.38
2023-03-03T22:11:57.798Z,100920.81
2023-03-03T22:14:26.114Z,100919.16
2023-03-03T22:16:54.715Z,100910.53
2023-03-03T22:19:23.434Z,100919.00
2023-03-03T22:21:53.425Z,100919.66
2023-03-03T22:24:21.877Z,100917.75
2023-03-03T22:26:50.421Z,100912.34
2023-03-03T22:29:22.841Z,100914.38
2023-03-03T22:31:51.712Z,100915.19
2023-03-03T22:34:20.443Z,100923.13
2023-03-03T22:36:48.950Z,100922.34
2023-03-03T22:39:18.689Z,100918.13
2023-03-03T22:41:47.255Z,100918.25
2023-03-03T22:44:15.570Z,100916.56
2023-03-03T22:46:44.072Z,100910.53
2023-03-03T22:49:12.498Z,100910.78
2023-03-03T22:51:40.877Z,100914.09
2023-03-03T22:54:09.248Z,100914.09
2023-03-03T22:56:39.298Z,100911.53
2023-03-03T22:59:07.683Z,100909.88
2023-03-03T23:01:36.080Z,100906.53
2023-03-03T23:04:04.523Z,100912.56
2023-03-03T23:06:32.898Z,100904.09
2023-03-03T23:09:01.327Z,100911.03
2023-03-03T23:11:29.746Z,100901.63
2023-03-03T23:13:59.885Z,100899.97
2023-03-03T23:16:28.638Z,100904.31
2023-03-03T23:18:57.067Z,100901.00
2023-03-03T23:21:25.651Z,100911.41
2023-03-03T23:23:54.026Z,100903.56
2023-03-03T23:26:22.366Z,100909.72
2023-03-03T23:28:51.273Z,100911.25
2023-03-03T23:31:21.071Z,100910.13
2023-03-03T23:33:49.500Z,100912.44
2023-03-03T23:36:18.817Z,100907.72
2023-03-03T23:38:47.309Z,100903.75
2023-03-03T23:41:15.733Z,100908.66
2023-03-03T23:43:44.109Z,100915.31
2023-03-03T23:46:12.520Z,100912.41
2023-03-03T23:48:42.307Z,100916.41
2023-03-03T23:51:10.615Z,100917.94
2023-03-03T23:53:38.970Z,100913.56
2023-03-03T23:56:08.404Z,100910.88
2023-03-03T23:58:36.731Z,100914.09
